createdAt,value
2019-04-14T00:01:32.709Z,15.43
2019-04-14T00:04:12.277Z,14.67
2019-04-14T00:06:41.973Z,14.67
2019-04-14T00:09:16.376Z,14.20
2019-04-14T00:11:46.150Z,14.57
2019-04-14T00:14:16.261Z,15.57
2019-04-14T00:16:45.269Z,14.80
2019-04-14T00:19:15.152Z,13.50
2019-04-14T00:21:45.366Z,14.47
2019-04-14T00:24:14.400Z,15.83
2019-04-14T00:26:44.501Z,13.73
2019-04-14T00:29:13.459Z,15.37
2019-04-14T00:31:43.265Z,15.97
2019-04-14T00:34:13.843Z,16.80
2019-04-14T00:37:01.178Z,16.20
2019-04-14T00:39:34.205Z,16.67
2019-04-14T00:42:23.427Z,15.73
2019-04-14T00:44:53.991Z,16.13
2019-04-14T00:47:24.652Z,15.57
2019-04-14T00:49:53.583Z,15.30
2019-04-14T00:52:23.373Z,14.87
2019-04-14T00:54:52.298Z,16.17
2019-04-14T00:57:22.366Z,15.03
2019-04-14T00:59:51.252Z,15.07
2019-04-14T01:02:21.083Z,16.50
2019-04-14T01:04:57.651Z,16.67
2019-04-14T01:07:24.143Z,15.53
2019-04-14T01:09:55.378Z,17.33
2019-04-14T01:12:27.764Z,17.00
2019-04-14T01:15:00.625Z,16.10
2019-04-14T01:17:30.813Z,16.53
2019-04-14T01:20:03.612Z,16.40
2019-04-14T01:22:33.503Z,16.40
2019-04-14T01:25:02.454Z,15.77
2019-04-14T01:27:31.988Z,16.30
2019-04-14T01:30:00.968Z,16.73
2019-04-14T01:32:30.500Z,16.23
2019-04-14T01:35:00.892Z,16.43
2019-04-14T01:37:31.085Z,16.90
2019-04-14T01:40:00.926Z,17.03
2019-04-14T01:42:31.952Z,17.57
2019-04-14T01:45:01.404Z,16.40
2019-04-14T01:47:31.323Z,15.93
2019-04-14T01:50:01.651Z,16.27
2019-04-14T01:52:43.778Z,16.27
2019-04-14T01:55:33.122Z,15.93
2019-04-14T01:58:03.676Z,17.17
2019-04-14T02:00:38.174Z,15.30
2019-04-14T02:03:08.345Z,16.53
2019-04-14T02:05:38.319Z,16.70
2019-04-14T02:08:07.439Z,15.97
2019-04-14T02:10:36.853Z,16.70
2019-04-14T02:13:07.076Z,15.87
2019-04-14T02:15:37.318Z,16.40
2019-04-14T02:18:07.676Z,16.30
2019-04-14T02:20:40.351Z,16.17
2019-04-14T02:23:10.355Z,16.97
2019-04-14T02:25:42.917Z,16.83
2019-04-14T02:28:11.758Z,15.43
2019-04-14T02:30:49.341Z,15.30
2019-04-14T02:33:38.963Z,16.50
2019-04-14T02:36:14.580Z,16.20
2019-04-14T02:38:47.357Z,15.80
2019-04-14T02:41:12.100Z,15.73
2019-04-14T02:44:00.143Z,16.47
2019-04-14T02:51:14.443Z,16.23
2019-04-14T02:53:42.043Z,16.90
2019-04-14T02:56:15.908Z,17.00
2019-04-14T02:58:45.984Z,16.67
2019-04-14T03:01:19.421Z,16.57
2019-04-14T03:03:41.052Z,16.20
2019-04-14T03:08:51.995Z,15.70
2019-04-14T03:11:11.660Z,16.63
2019-04-14T03:14:01.297Z,15.33
2019-04-14T03:16:15.219Z,16.53
2019-04-14T03:21:41.515Z,16.90
2019-04-14T03:24:13.012Z,18.27
2019-04-14T03:26:54.587Z,17.23
2019-04-14T03:29:45.076Z,17.43
2019-04-14T03:34:55.173Z,16.63
2019-04-14T03:39:38.847Z,18.47
2019-04-14T03:42:13.132Z,17.27
2019-04-14T03:44:41.413Z,17.20
2019-04-14T03:47:13.775Z,17.90
2019-04-14T03:52:31.677Z,16.93
2019-04-14T03:54:36.581Z,17.33
2019-04-14T03:56:55.818Z,15.93
2019-04-14T03:59:24.503Z,17.30
2019-04-14T04:01:54.280Z,17.10
2019-04-14T04:04:22.999Z,17.37
2019-04-14T04:06:51.586Z,16.23
2019-04-14T04:09:21.901Z,15.90
2019-04-14T04:11:50.483Z,15.90
2019-04-14T04:14:20.243Z,15.97
2019-04-14T04:16:53.353Z,16.80
2019-04-14T04:19:23.611Z,15.27
2019-04-14T04:21:53.817Z,15.80
2019-04-14T04:24:41.067Z,15.43
2019-04-14T04:27:11.288Z,15.70
2019-04-14T04:29:57.533Z,16.63
2019-04-14T04:32:44.802Z,16.93
2019-04-14T04:35:17.939Z,16.10
2019-04-14T04:37:52.022Z,16.23
2019-04-14T04:40:24.599Z,16.40
2019-04-14T04:42:52.697Z,17.03
2019-04-14T04:45:21.382Z,17.00
2019-04-14T04:47:51.213Z,16.23
2019-04-14T04:50:19.921Z,16.93
2019-04-14T04:52:49.446Z,15.07
2019-04-14T04:55:18.120Z,17.63
2019-04-14T04:57:46.708Z,16.03
2019-04-14T05:00:18.170Z,17.20
2019-04-14T05:02:46.788Z,16.07
2019-04-14T05:05:44.985Z,17.17
2019-04-14T05:08:13.595Z,15.93
2019-04-14T05:10:46.596Z,16.40
2019-04-14T05:13:16.148Z,16.93
2019-04-14T05:15:46.607Z,16.23
2019-04-14T05:18:17.830Z,17.17
2019-04-14T05:20:46.510Z,16.53
2019-04-14T05:23:17.059Z,16.67
2019-04-14T05:25:47.438Z,17.77
2019-04-14T05:28:16.194Z,16.27
2019-04-14T05:30:45.721Z,17.03
2019-04-14T05:33:14.418Z,15.87
2019-04-14T05:35:42.994Z,16.43
2019-04-14T05:38:12.583Z,16.50
2019-04-14T05:40:41.249Z,16.63
2019-04-14T05:43:09.892Z,19.23
2019-04-14T05:45:39.487Z,18.73
2019-04-14T05:48:08.167Z,19.07
2019-04-14T05:50:37.640Z,17.17
2019-04-14T05:53:06.537Z,18.43
2019-04-14T05:55:35.250Z,17.97
2019-04-14T05:58:04.057Z,17.70
2019-04-14T06:00:34.205Z,18.37
2019-04-14T06:03:03.815Z,19.13
2019-04-14T06:05:32.452Z,17.90
2019-04-14T06:08:00.989Z,18.67
2019-04-14T06:10:29.619Z,17.90
2019-04-14T06:12:58.337Z,16.90
2019-04-14T06:15:26.893Z,17.80
2019-04-14T06:17:55.499Z,17.93
2019-04-14T06:20:24.066Z,19.17
2019-04-14T06:22:52.673Z,17.30
2019-04-14T06:25:21.257Z,16.47
2019-04-14T06:27:49.835Z,16.17
2019-04-14T06:30:29.175Z,16.87
2019-04-14T06:32:59.392Z,16.27
2019-04-14T06:35:32.730Z,17.37
2019-04-14T06:38:05.662Z,18.87
2019-04-14T06:40:34.884Z,18.47
2019-04-14T06:43:03.534Z,17.80
2019-04-14T06:45:32.131Z,18.17
2019-04-14T06:48:02.240Z,17.97
2019-04-14T06:50:30.862Z,18.10
2019-04-14T06:52:59.547Z,18.67
2019-04-14T06:55:28.125Z,18.20
2019-04-14T06:57:56.686Z,18.70
2019-04-14T07:00:25.488Z,18.07
2019-04-14T07:02:54.081Z,18.83
2019-04-14T07:05:22.741Z,17.30
2019-04-14T07:07:57.212Z,18.10
2019-04-14T07:10:23.726Z,17.97
2019-04-14T07:12:52.313Z,18.90
2019-04-14T07:15:20.875Z,18.17
2019-04-14T07:17:49.482Z,19.23
2019-04-14T07:20:18.042Z,18.40
2019-04-14T07:22:46.600Z,19.23
2019-04-14T07:25:15.206Z,18.93
2019-04-14T07:27:43.772Z,18.70
2019-04-14T07:30:16.853Z,17.47
2019-04-14T07:32:47.073Z,19.53
2019-04-14T07:35:26.196Z,17.07
2019-04-14T07:38:04.999Z,17.63
2019-04-14T07:40:44.482Z,17.77
2019-04-14T07:43:17.481Z,17.20
2019-04-14T07:45:50.339Z,17.50
2019-04-14T07:48:20.565Z,17.93
2019-04-14T07:50:53.800Z,18.80
2019-04-14T07:53:29.709Z,20.43
2019-04-14T07:56:15.897Z,18.20
2019-04-14T07:59:02.512Z,16.33
2019-04-14T08:01:34.265Z,17.60
2019-04-14T08:04:07.096Z,17.53
2019-04-14T08:06:38.296Z,17.63
2019-04-14T08:09:06.994Z,18.07
2019-04-14T08:11:35.640Z,17.93
2019-04-14T08:14:04.449Z,16.50
2019-04-14T08:16:34.688Z,16.27
2019-04-14T08:19:03.323Z,15.37
2019-04-14T08:21:37.961Z,15.13
2019-04-14T08:24:06.634Z,14.50
2019-04-14T08:26:36.731Z,13.83
2019-04-14T08:29:05.510Z,13.80
2019-04-14T08:31:34.074Z,13.67
2019-04-14T08:34:02.718Z,13.30
2019-04-14T08:36:34.277Z,12.07
2019-04-14T08:39:03.479Z,12.83
2019-04-14T08:41:33.710Z,13.03
2019-04-14T08:44:13.087Z,12.80
2019-04-14T08:46:52.084Z,12.20
2019-04-14T08:49:22.319Z,12.03
2019-04-14T08:52:01.376Z,12.20
2019-04-14T08:54:43.380Z,12.20
2019-04-14T08:57:19.750Z,12.30
2019-04-14T08:59:50.018Z,12.40
2019-04-14T09:02:23.007Z,12.50
2019-04-14T09:05:02.117Z,13.03
2019-04-14T09:07:48.636Z,12.23
2019-04-14T09:10:20.416Z,13.13
2019-04-14T09:12:51.302Z,13.40
2019-04-14T09:15:20.404Z,12.97
2019-04-14T09:17:51.957Z,12.13
2019-04-14T09:20:20.746Z,13.50
2019-04-14T09:22:49.628Z,13.53
2019-04-14T09:25:18.500Z,13.30
2019-04-14T09:27:47.298Z,13.13
2019-04-14T09:30:18.129Z,13.10
2019-04-14T09:32:47.008Z,13.47
2019-04-14T09:35:15.824Z,13.13
2019-04-14T09:37:44.747Z,12.30
2019-04-14T09:40:14.292Z,11.37
2019-04-14T09:42:42.932Z,11.77
2019-04-14T09:45:11.626Z,12.53
2019-04-14T09:47:40.208Z,11.80
2019-04-14T09:50:08.933Z,11.20
2019-04-14T09:52:39.131Z,11.40
2019-04-14T09:55:07.990Z,11.03
2019-04-14T09:57:36.810Z,11.37
2019-04-14T10:00:06.970Z,11.13
2019-04-14T10:02:35.559Z,10.53
2019-04-14T10:05:05.861Z,10.83
2019-04-14T10:07:34.463Z,11.40
2019-04-14T10:10:04.470Z,10.40
2019-04-14T10:12:33.112Z,11.83
2019-04-14T10:15:01.680Z,10.97
2019-04-14T10:17:30.242Z,11.37
2019-04-14T10:19:58.879Z,11.00
2019-04-14T10:22:33.873Z,11.80
2019-04-14T10:24:57.629Z,11.80
2019-04-14T10:27:32.854Z,12.67
2019-04-14T10:30:06.865Z,12.60
2019-04-14T10:32:35.745Z,11.87
2019-04-14T10:35:05.446Z,11.70
2019-04-14T10:37:34.214Z,11.97
2019-04-14T10:40:05.968Z,12.43
2019-04-14T10:42:33.582Z,12.87
2019-04-14T10:45:02.273Z,12.80
2019-04-14T10:47:30.832Z,12.77
2019-04-14T10:50:03.696Z,12.57
2019-04-14T10:52:34.992Z,13.63
2019-04-14T10:55:04.549Z,12.43
2019-04-14T10:57:39.857Z,12.53
2019-04-14T11:00:10.997Z,12.40
2019-04-14T11:02:40.838Z,13.00
2019-04-14T11:05:12.478Z,13.80
2019-04-14T11:07:41.103Z,14.37
2019-04-14T11:10:10.219Z,13.63
2019-04-14T11:12:38.869Z,13.60
2019-04-14T11:15:09.550Z,13.63
2019-04-14T11:17:38.120Z,13.50
2019-04-14T11:20:09.610Z,13.83
2019-04-14T11:22:38.239Z,13.70
2019-04-14T11:25:07.081Z,14.80
2019-04-14T11:27:38.686Z,13.70
2019-04-14T11:30:09.322Z,14.77
2019-04-14T11:32:55.964Z,14.13
2019-04-14T11:35:32.221Z,13.63
2019-04-14T11:38:02.396Z,13.93
2019-04-14T11:40:34.665Z,13.63
2019-04-14T11:43:07.850Z,14.07
2019-04-14T11:45:36.448Z,14.60
2019-04-14T11:48:05.120Z,14.30
2019-04-14T11:50:33.705Z,14.10
2019-04-14T11:53:02.321Z,14.53
2019-04-14T11:55:31.043Z,13.63
2019-04-14T11:58:11.927Z,13.80
2019-04-14T12:00:58.317Z,12.80
2019-04-14T12:03:46.094Z,13.37
2019-04-14T12:06:19.185Z,12.90
2019-04-14T12:08:52.595Z,12.90
2019-04-14T12:11:27.230Z,12.87
2019-04-14T12:13:55.884Z,12.30
2019-04-14T12:16:27.179Z,11.27
2019-04-14T12:18:55.820Z,13.23
2019-04-14T12:21:24.400Z,12.80
2019-04-14T12:23:53.019Z,11.60
2019-04-14T12:26:21.586Z,12.13
2019-04-14T12:28:51.477Z,12.73
2019-04-14T12:31:21.758Z,13.60
2019-04-14T12:33:50.410Z,12.53
2019-04-14T12:36:19.060Z,11.97
2019-04-14T12:38:48.073Z,13.03
2019-04-14T12:41:24.173Z,12.70
2019-04-14T12:44:14.729Z,12.60
2019-04-14T12:46:44.950Z,11.57
2019-04-14T12:49:17.858Z,12.17
2019-04-14T12:51:53.820Z,11.37
2019-04-14T12:54:22.421Z,12.70
2019-04-14T12:56:51.050Z,10.93
2019-04-14T12:59:23.686Z,11.03
2019-04-14T13:01:56.991Z,11.77
2019-04-14T13:04:25.567Z,11.67
2019-04-14T13:06:54.167Z,11.90
2019-04-14T13:09:22.733Z,11.40
2019-04-14T13:11:51.400Z,10.40
2019-04-14T13:14:20.040Z,10.07
2019-04-14T13:16:48.595Z,11.87
2019-04-14T13:19:20.243Z,10.97
2019-04-14T13:21:54.921Z,10.37
2019-04-14T13:24:27.679Z,10.97
2019-04-14T13:26:56.466Z,11.33
2019-04-14T13:29:25.482Z,11.27
2019-04-14T13:31:54.132Z,10.40
2019-04-14T13:34:22.909Z,10.23
2019-04-14T13:37:03.281Z,9.20
2019-04-14T13:39:34.095Z,9.97
2019-04-14T13:42:05.618Z,9.83
2019-04-14T13:44:34.175Z,11.00
2019-04-14T13:47:02.822Z,9.20
2019-04-14T13:49:31.492Z,9.60
2019-04-14T13:52:00.046Z,9.97
2019-04-14T13:54:32.624Z,9.37
2019-04-14T13:57:01.192Z,9.40
2019-04-14T13:59:32.464Z,8.70
2019-04-14T14:02:01.066Z,8.27
2019-04-14T14:04:29.610Z,8.47
2019-04-14T14:06:58.218Z,8.63
2019-04-14T14:09:29.484Z,7.77
2019-04-14T14:12:05.134Z,6.97
2019-04-14T14:14:41.561Z,8.03
2019-04-14T14:17:28.093Z,6.73
2019-04-14T14:20:04.374Z,7.23
2019-04-14T14:22:45.313Z,6.80
2019-04-14T14:25:22.782Z,7.03
2019-04-14T14:27:51.747Z,6.30
2019-04-14T14:30:21.220Z,6.97
2019-04-14T14:32:52.818Z,6.60
2019-04-14T14:35:21.393Z,6.17
2019-04-14T14:37:49.984Z,5.97
2019-04-14T14:40:21.398Z,6.10
2019-04-14T14:42:49.955Z,6.00
2019-04-14T14:45:20.310Z,5.97
2019-04-14T14:48:06.949Z,5.97
2019-04-14T14:50:38.121Z,6.00
2019-04-14T14:53:12.318Z,5.70
2019-04-14T14:55:37.374Z,5.30
2019-04-14T14:58:06.043Z,5.40
2019-04-14T15:00:35.121Z,5.30
2019-04-14T15:03:07.928Z,5.73
2019-04-14T15:05:36.498Z,4.83
2019-04-14T15:08:05.114Z,5.33
2019-04-14T15:10:33.711Z,5.13
2019-04-14T15:13:02.404Z,5.10
2019-04-14T15:15:31.022Z,5.37
2019-04-14T15:17:59.593Z,5.30
2019-04-14T15:20:28.238Z,5.17
2019-04-14T15:22:56.920Z,5.50
2019-04-14T15:25:25.659Z,5.50
2019-04-14T15:27:54.237Z,5.80
2019-04-14T15:30:29.297Z,5.40
2019-04-14T15:32:57.934Z,5.40
2019-04-14T15:35:26.528Z,5.23
2019-04-14T15:37:55.414Z,4.67
2019-04-14T15:40:23.966Z,4.90
2019-04-14T15:42:53.566Z,5.40
2019-04-14T15:45:22.335Z,4.97
2019-04-14T15:47:50.938Z,4.93
2019-04-14T15:50:19.489Z,5.47
2019-04-14T15:52:48.344Z,5.37
2019-04-14T15:55:18.193Z,6.00
2019-04-14T15:57:51.246Z,5.77
2019-04-14T16:00:36.301Z,5.57
2019-04-14T16:03:09.220Z,5.83
2019-04-14T16:05:39.419Z,5.80
2019-04-14T16:08:09.632Z,5.93
2019-04-14T16:10:42.567Z,5.67
2019-04-14T16:13:12.829Z,5.53
2019-04-14T16:15:59.341Z,6.00
2019-04-14T16:18:45.601Z,5.87
2019-04-14T16:21:14.435Z,5.50
2019-04-14T16:23:50.334Z,5.93
2019-04-14T16:26:26.813Z,5.60
2019-04-14T16:29:02.513Z,5.17
2019-04-14T16:31:31.866Z,4.53
2019-04-14T16:34:02.074Z,4.77
2019-04-14T16:36:35.246Z,5.00
2019-04-14T16:39:05.924Z,5.00
2019-04-14T16:41:34.530Z,4.70
2019-04-14T16:44:03.728Z,4.53
2019-04-14T16:46:32.356Z,4.80
2019-04-14T16:49:01.799Z,4.70
2019-04-14T16:51:48.047Z,4.80
2019-04-14T16:54:18.263Z,5.43
2019-04-14T16:57:05.910Z,6.10
2019-04-14T16:59:35.022Z,5.30
2019-04-14T17:02:10.782Z,6.30
2019-04-14T17:04:33.874Z,6.50
2019-04-14T17:07:02.474Z,6.93
2019-04-14T17:09:31.039Z,6.77
2019-04-14T17:12:04.158Z,6.77
2019-04-14T17:14:39.992Z,6.40
2019-04-14T17:17:12.838Z,7.13
2019-04-14T17:19:43.089Z,6.90
2019-04-14T17:22:22.346Z,6.90
2019-04-14T17:25:04.356Z,6.73
2019-04-14T17:27:34.632Z,6.27
2019-04-14T17:30:31.434Z,6.77
2019-04-14T17:33:05.680Z,7.30
2019-04-14T17:35:41.576Z,6.67
2019-04-14T17:38:14.752Z,6.43
2019-04-14T17:41:02.962Z,6.50
2019-04-14T17:43:33.156Z,6.97
2019-04-14T17:46:12.300Z,6.17
2019-04-14T17:49:00.358Z,6.87
2019-04-14T17:51:33.480Z,6.33
2019-04-14T17:54:28.381Z,6.63
2019-04-14T17:56:50.694Z,6.80
2019-04-14T17:59:23.306Z,6.20
2019-04-14T18:02:05.332Z,6.20
2019-04-14T18:04:41.293Z,6.67
2019-04-14T18:07:16.167Z,6.37
2019-04-14T18:10:02.497Z,6.00
2019-04-14T18:12:35.945Z,6.50
2019-04-14T18:15:11.445Z,6.00
2019-04-14T18:17:40.487Z,6.30
2019-04-14T18:20:10.912Z,6.37
2019-04-14T18:22:39.525Z,6.00
2019-04-14T18:25:08.792Z,6.00
2019-04-14T18:27:55.330Z,5.97
2019-04-14T18:30:25.558Z,6.60
2019-04-14T18:32:58.503Z,6.17
2019-04-14T18:35:28.752Z,6.47
2019-04-14T18:38:15.176Z,7.03
2019-04-14T18:40:48.067Z,6.77
2019-04-14T18:43:22.085Z,7.50
2019-04-14T18:45:58.700Z,6.77
2019-04-14T18:48:31.766Z,6.10
2019-04-14T18:51:21.628Z,6.57
2019-04-14T18:53:58.399Z,7.10
2019-04-14T18:56:40.427Z,6.87
2019-04-14T18:59:29.559Z,6.03
2019-04-14T19:01:58.473Z,6.87
2019-04-14T19:04:27.046Z,6.80
2019-04-14T19:06:55.599Z,6.53
2019-04-14T19:09:24.252Z,6.83
2019-04-14T19:12:12.751Z,7.00
2019-04-14T19:14:42.097Z,6.93
2019-04-14T19:17:12.296Z,6.80
2019-04-14T19:19:42.954Z,6.63
2019-04-14T19:22:11.549Z,6.63
2019-04-14T19:24:40.100Z,6.50
2019-04-14T19:27:09.066Z,6.63
2019-04-14T19:29:37.751Z,6.60
2019-04-14T19:32:28.661Z,6.73
2019-04-14T19:34:57.250Z,6.70
2019-04-14T19:37:28.709Z,7.27
2019-04-14T19:39:57.380Z,7.70
2019-04-14T19:42:28.157Z,6.53
2019-04-14T19:47:31.930Z,7.07
2019-04-14T19:50:00.495Z,6.70
2019-04-14T19:52:29.130Z,7.13
2019-04-14T19:54:57.766Z,6.10
2019-04-14T19:57:32.426Z,6.40
2019-04-14T20:00:01.100Z,6.50
2019-04-14T20:02:30.385Z,6.87
2019-04-14T20:04:59.260Z,6.40
2019-04-14T20:07:27.816Z,7.30
2019-04-14T20:09:56.379Z,7.23
2019-04-14T20:12:24.978Z,7.20
2019-04-14T20:14:54.840Z,7.43
2019-04-14T20:17:24.980Z,7.00
2019-04-14T20:19:55.208Z,7.40
2019-04-14T20:22:31.631Z,6.47
2019-04-14T20:25:01.865Z,7.27
2019-04-14T20:27:34.932Z,6.60
2019-04-14T20:30:14.522Z,7.23
2019-04-14T20:32:44.860Z,6.90
2019-04-14T20:35:13.551Z,7.97
2019-04-14T20:37:42.161Z,6.57
2019-04-14T20:40:10.877Z,7.00
2019-04-14T20:42:39.603Z,8.23
2019-04-14T20:45:10.259Z,7.37
2019-04-14T20:47:40.451Z,7.70
2019-04-14T20:50:13.305Z,7.97
2019-04-14T20:52:42.439Z,7.33
2019-04-14T20:55:11.453Z,7.47
2019-04-14T20:57:40.069Z,7.87
2019-04-14T21:00:12.256Z,7.90
2019-04-14T21:02:58.608Z,7.60
2019-04-14T21:05:28.873Z,7.93
2019-04-14T21:08:18.224Z,7.63
2019-04-14T21:11:03.513Z,7.80
2019-04-14T21:13:46.441Z,7.60
2019-04-14T21:16:34.191Z,7.90
2019-04-14T21:19:17.198Z,7.10
2019-04-14T21:21:49.124Z,8.23
2019-04-14T21:24:24.801Z,7.57
2019-04-14T21:26:55.026Z,7.80
2019-04-14T21:29:25.235Z,8.50
2019-04-14T21:32:01.718Z,8.73
2019-04-14T21:34:32.064Z,8.30
2019-04-14T21:37:04.998Z,8.23
2019-04-14T21:39:44.010Z,8.33
2019-04-14T21:42:13.794Z,8.47
2019-04-14T21:44:42.487Z,9.00
2019-04-14T21:47:13.777Z,9.20
2019-04-14T21:49:42.448Z,8.37
2019-04-14T21:52:14.186Z,7.70
2019-04-14T21:54:44.720Z,8.07
2019-04-14T21:57:14.956Z,8.97
2019-04-14T21:59:45.160Z,7.77
2019-04-14T22:02:18.232Z,8.40
2019-04-14T22:04:53.954Z,8.47
2019-04-14T22:07:26.748Z,8.80
2019-04-14T22:09:57.706Z,8.70
2019-04-14T22:12:26.390Z,8.10
2019-04-14T22:14:55.034Z,8.50
2019-04-14T22:17:23.611Z,8.83
2019-04-14T22:19:52.189Z,9.40
2019-04-14T22:22:20.738Z,8.53
2019-04-14T22:24:49.393Z,8.60
2019-04-14T22:27:18.238Z,8.73
2019-04-14T22:29:47.299Z,8.73
2019-04-14T22:32:15.888Z,8.70
2019-04-14T22:34:44.447Z,9.37
2019-04-14T22:37:14.609Z,8.20
2019-04-14T22:39:44.737Z,8.10
2019-04-14T22:42:13.362Z,9.17
2019-04-14T22:44:41.956Z,9.10
2019-04-14T22:47:10.517Z,8.60
2019-04-14T22:49:39.177Z,8.80
2019-04-14T22:52:07.813Z,10.50
2019-04-14T22:54:36.401Z,9.37
2019-04-14T22:57:05.393Z,9.23
2019-04-14T22:59:33.947Z,9.43
2019-04-14T23:02:16.338Z,10.07
2019-04-14T23:05:02.521Z,10.20
2019-04-14T23:07:34.360Z,9.87
2019-04-14T23:10:19.771Z,9.53
2019-04-14T23:12:58.464Z,10.17
2019-04-14T23:15:28.689Z,10.40
2019-04-14T23:17:58.903Z,9.33
2019-04-14T23:20:38.019Z,9.37
2019-04-14T23:23:10.969Z,9.20
2019-04-14T23:25:39.624Z,9.20
2019-04-14T23:28:08.252Z,9.40
2019-04-14T23:30:37.692Z,10.40
2019-04-14T23:33:06.407Z,9.97
2019-04-14T23:35:35.037Z,10.17
2019-04-14T23:38:06.113Z,9.97
2019-04-14T23:40:34.741Z,10.83
2019-04-14T23:43:07.912Z,10.13
2019-04-14T23:45:39.548Z,9.97
2019-04-14T23:48:08.212Z,11.10
2019-04-14T23:50:37.116Z,10.20
2019-04-14T23:53:05.753Z,10.43
2019-04-14T23:55:34.413Z,10.27
2019-04-14T23:58:03.036Z,10.00
